sensor_id;sensor_type;location;lat;lon;timestamp;temperature;humidity
26099;DHT22;13860;52.370;6.764;2024-03-25T00:00:26;7.60;83.50
26099;DHT22;13860;52.370;6.764;2024-03-25T00:03:29;7.60;83.20
26099;DHT22;13860;52.370;6.764;2024-03-25T00:06:32;7.60;83.20
26099;DHT22;13860;52.370;6.764;2024-03-25T00:09:34;7.70;83.80
26099;DHT22;13860;52.370;6.764;2024-03-25T00:12:38;7.60;84.30
26099;DHT22;13860;52.370;6.764;2024-03-25T00:15:42;7.60;83.40
26099;DHT22;13860;52.370;6.764;2024-03-25T00:18:46;7.60;83.60
26099;DHT22;13860;52.370;6.764;2024-03-25T00:21:48;7.60;84.00
26099;DHT22;13860;52.370;6.764;2024-03-25T00:24:52;7.60;83.50
26099;DHT22;13860;52.370;6.764;2024-03-25T00:27:54;7.60;83.90
26099;DHT22;13860;52.370;6.764;2024-03-25T00:31:00;7.50;83.70
26099;DHT22;13860;52.370;6.764;2024-03-25T00:34:02;7.50;83.40
26099;DHT22;13860;52.370;6.764;2024-03-25T00:37:05;7.50;83.10
26099;DHT22;13860;52.370;6.764;2024-03-25T00:40:08;7.50;83.20
26099;DHT22;13860;52.370;6.764;2024-03-25T00:43:29;7.40;83.40
26099;DHT22;13860;52.370;6.764;2024-03-25T00:46:33;7.50;83.60
26099;DHT22;13860;52.370;6.764;2024-03-25T00:49:37;7.50;83.60
26099;DHT22;13860;52.370;6.764;2024-03-25T00:52:38;7.30;83.20
26099;DHT22;13860;52.370;6.764;2024-03-25T00:55:42;7.40;83.80
26099;DHT22;13860;52.370;6.764;2024-03-25T00:58:44;7.30;83.70
26099;DHT22;13860;52.370;6.764;2024-03-25T01:01:50;7.20;83.70
26099;DHT22;13860;52.370;6.764;2024-03-25T01:04:52;7.20;84.20
26099;DHT22;13860;52.370;6.764;2024-03-25T01:07:55;7.30;85.00
26099;DHT22;13860;52.370;6.764;2024-03-25T01:10:57;7.30;85.50
26099;DHT22;13860;52.370;6.764;2024-03-25T01:14:01;7.30;85.30
26099;DHT22;13860;52.370;6.764;2024-03-25T01:17:05;7.10;85.10
26099;DHT22;13860;52.370;6.764;2024-03-25T01:20:10;7.10;85.00
26099;DHT22;13860;52.370;6.764;2024-03-25T01:23:12;7.00;85.20
26099;DHT22;13860;52.370;6.764;2024-03-25T01:26:16;7.10;85.40
26099;DHT22;13860;52.370;6.764;2024-03-25T01:29:18;7.00;84.80
26099;DHT22;13860;52.370;6.764;2024-03-25T01:32:24;7.00;85.70
26099;DHT22;13860;52.370;6.764;2024-03-25T01:35:26;7.00;86.10
26099;DHT22;13860;52.370;6.764;2024-03-25T01:38:29;7.00;85.60
26099;DHT22;13860;52.370;6.764;2024-03-25T01:41:31;7.00;85.40
26099;DHT22;13860;52.370;6.764;2024-03-25T01:44:35;7.00;85.20
26099;DHT22;13860;52.370;6.764;2024-03-25T01:47:39;7.00;85.60
26099;DHT22;13860;52.370;6.764;2024-03-25T01:50:44;6.90;85.30
26099;DHT22;13860;52.370;6.764;2024-03-25T01:53:47;6.90;85.00
26099;DHT22;13860;52.370;6.764;2024-03-25T01:56:51;6.90;85.30
26099;DHT22;13860;52.370;6.764;2024-03-25T01:59:53;6.90;85.20
26099;DHT22;13860;52.370;6.764;2024-03-25T02:03:02;7.00;85.30
26099;DHT22;13860;52.370;6.764;2024-03-25T02:06:07;6.90;85.40
26099;DHT22;13860;52.370;6.764;2024-03-25T02:09:13;7.00;85.80
26099;DHT22;13860;52.370;6.764;2024-03-25T02:12:15;7.00;85.80
26099;DHT22;13860;52.370;6.764;2024-03-25T02:15:19;7.00;86.30
26099;DHT22;13860;52.370;6.764;2024-03-25T02:18:23;6.90;85.80
26099;DHT22;13860;52.370;6.764;2024-03-25T02:21:27;7.00;85.90
26099;DHT22;13860;52.370;6.764;2024-03-25T02:24:30;6.90;85.40
26099;DHT22;13860;52.370;6.764;2024-03-25T02:27:37;7.00;85.90
26099;DHT22;13860;52.370;6.764;2024-03-25T02:30:39;7.00;85.70
26099;DHT22;13860;52.370;6.764;2024-03-25T02:33:43;6.80;85.00
26099;DHT22;13860;52.370;6.764;2024-03-25T02:36:45;6.80;85.40
26099;DHT22;13860;52.370;6.764;2024-03-25T02:39:49;6.80;84.80
26099;DHT22;13860;52.370;6.764;2024-03-25T02:42:53;6.70;85.00
26099;DHT22;13860;52.370;6.764;2024-03-25T02:45:58;6.80;85.00
26099;DHT22;13860;52.370;6.764;2024-03-25T02:49:00;6.80;84.50
26099;DHT22;13860;52.370;6.764;2024-03-25T02:52:04;6.70;84.50
26099;DHT22;13860;52.370;6.764;2024-03-25T02:55:06;6.60;85.30
26099;DHT22;13860;52.370;6.764;2024-03-25T02:58:13;6.60;84.80
26099;DHT22;13860;52.370;6.764;2024-03-25T03:01:16;6.60;84.80
26099;DHT22;13860;52.370;6.764;2024-03-25T03:04:20;6.60;85.40
26099;DHT22;13860;52.370;6.764;2024-03-25T03:07:22;6.60;85.60
26099;DHT22;13860;52.370;6.764;2024-03-25T03:10:26;6.60;85.40
26099;DHT22;13860;52.370;6.764;2024-03-25T03:13:30;6.60;86.20
26099;DHT22;13860;52.370;6.764;2024-03-25T03:16:33;6.50;86.00
26099;DHT22;13860;52.370;6.764;2024-03-25T03:19:35;6.60;87.10
26099;DHT22;13860;52.370;6.764;2024-03-25T03:22:39;6.60;86.30
26099;DHT22;13860;52.370;6.764;2024-03-25T03:25:41;6.60;85.70
26099;DHT22;13860;52.370;6.764;2024-03-25T03:28:47;6.60;86.10
26099;DHT22;13860;52.370;6.764;2024-03-25T03:31:49;6.50;85.80
26099;DHT22;13860;52.370;6.764;2024-03-25T03:34:53;6.60;86.30
26099;DHT22;13860;52.370;6.764;2024-03-25T03:37:54;6.60;85.70
26099;DHT22;13860;52.370;6.764;2024-03-25T03:40:58;6.50;84.90
26099;DHT22;13860;52.370;6.764;2024-03-25T03:44:03;6.60;85.30
26099;DHT22;13860;52.370;6.764;2024-03-25T03:47:07;6.50;85.10
26099;DHT22;13860;52.370;6.764;2024-03-25T03:50:09;6.60;85.60
26099;DHT22;13860;52.370;6.764;2024-03-25T03:53:13;6.50;85.40
26099;DHT22;13860;52.370;6.764;2024-03-25T03:56:15;6.50;85.90
26099;DHT22;13860;52.370;6.764;2024-03-25T03:59:21;6.50;85.50
26099;DHT22;13860;52.370;6.764;2024-03-25T04:02:23;6.60;85.50
26099;DHT22;13860;52.370;6.764;2024-03-25T04:05:29;6.50;85.00
26099;DHT22;13860;52.370;6.764;2024-03-25T04:08:31;6.60;85.90
26099;DHT22;13860;52.370;6.764;2024-03-25T04:11:35;6.50;85.50
26099;DHT22;13860;52.370;6.764;2024-03-25T04:14:39;6.60;85.50
26099;DHT22;13860;52.370;6.764;2024-03-25T04:17:43;6.60;85.40
26099;DHT22;13860;52.370;6.764;2024-03-25T04:20:45;6.60;85.10
26099;DHT22;13860;52.370;6.764;2024-03-25T04:23:49;6.60;85.20
26099;DHT22;13860;52.370;6.764;2024-03-25T04:26:51;6.50;85.00
26099;DHT22;13860;52.370;6.764;2024-03-25T04:29:57;6.60;85.60
26099;DHT22;13860;52.370;6.764;2024-03-25T04:32:59;6.60;86.20
26099;DHT22;13860;52.370;6.764;2024-03-25T04:36:03;6.60;86.00
26099;DHT22;13860;52.370;6.764;2024-03-25T04:39:05;6.60;85.90
26099;DHT22;13860;52.370;6.764;2024-03-25T04:42:09;6.60;85.40
26099;DHT22;13860;52.370;6.764;2024-03-25T04:45:14;6.60;85.60
26099;DHT22;13860;52.370;6.764;2024-03-25T04:48:17;6.60;86.00
26099;DHT22;13860;52.370;6.764;2024-03-25T04:51:19;6.70;86.00
26099;DHT22;13860;52.370;6.764;2024-03-25T04:54:23;6.60;85.70
26099;DHT22;13860;52.370;6.764;2024-03-25T04:57:24;6.70;86.20
26099;DHT22;13860;52.370;6.764;2024-03-25T05:00:31;6.60;85.90
26099;DHT22;13860;52.370;6.764;2024-03-25T05:03:32;6.70;86.10
26099;DHT22;13860;52.370;6.764;2024-03-25T05:06:36;6.60;85.80
26099;DHT22;13860;52.370;6.764;2024-03-25T05:09:38;6.70;86.90
26099;DHT22;13860;52.370;6.764;2024-03-25T05:12:42;6.70;86.60
26099;DHT22;13860;52.370;6.764;2024-03-25T05:15:52;6.70;87.10
26099;DHT22;13860;52.370;6.764;2024-03-25T05:18:56;6.70;86.80
26099;DHT22;13860;52.370;6.764;2024-03-25T05:21:58;6.70;86.30
26099;DHT22;13860;52.370;6.764;2024-03-25T05:25:01;6.70;85.20
26099;DHT22;13860;52.370;6.764;2024-03-25T05:28:03;6.70;85.90
26099;DHT22;13860;52.370;6.764;2024-03-25T05:31:10;6.60;85.60
26099;DHT22;13860;52.370;6.764;2024-03-25T05:34:12;6.70;85.70
26099;DHT22;13860;52.370;6.764;2024-03-25T05:37:16;6.70;86.10
26099;DHT22;13860;52.370;6.764;2024-03-25T05:40:17;6.70;86.40
26099;DHT22;13860;52.370;6.764;2024-03-25T05:43:21;6.70;86.70
26099;DHT22;13860;52.370;6.764;2024-03-25T05:46:25;6.80;86.90
26099;DHT22;13860;52.370;6.764;2024-03-25T05:49:29;6.80;86.40
26099;DHT22;13860;52.370;6.764;2024-03-25T05:52:31;6.80;86.60
26099;DHT22;13860;52.370;6.764;2024-03-25T05:55:34;6.80;86.50
26099;DHT22;13860;52.370;6.764;2024-03-25T05:58:36;6.70;87.10
26099;DHT22;13860;52.370;6.764;2024-03-25T06:01:42;6.80;86.90
26099;DHT22;13860;52.370;6.764;2024-03-25T06:04:44;6.70;86.80
26099;DHT22;13860;52.370;6.764;2024-03-25T06:07:48;6.80;87.20
26099;DHT22;13860;52.370;6.764;2024-03-25T06:10:49;6.70;86.80
26099;DHT22;13860;52.370;6.764;2024-03-25T06:13:53;6.80;87.50
26099;DHT22;13860;52.370;6.764;2024-03-25T06:16:57;6.80;86.60
26099;DHT22;13860;52.370;6.764;2024-03-25T06:20:01;6.70;86.00
26099;DHT22;13860;52.370;6.764;2024-03-25T06:23:03;6.70;85.00
26099;DHT22;13860;52.370;6.764;2024-03-25T06:26:07;6.60;84.80
26099;DHT22;13860;52.370;6.764;2024-03-25T06:29:08;6.60;84.80
26099;DHT22;13860;52.370;6.764;2024-03-25T06:32:15;6.70;85.00
26099;DHT22;13860;52.370;6.764;2024-03-25T06:35:31;6.80;85.10
26099;DHT22;13860;52.370;6.764;2024-03-25T06:38:35;6.70;84.90
26099;DHT22;13860;52.370;6.764;2024-03-25T06:41:37;6.80;85.10
26099;DHT22;13860;52.370;6.764;2024-03-25T06:44:40;6.80;85.00
26099;DHT22;13860;52.370;6.764;2024-03-25T06:47:45;6.80;84.90
26099;DHT22;13860;52.370;6.764;2024-03-25T06:50:55;6.90;84.80
26099;DHT22;13860;52.370;6.764;2024-03-25T06:53:56;7.00;84.80
26099;DHT22;13860;52.370;6.764;2024-03-25T06:57:00;6.90;85.10
26099;DHT22;13860;52.370;6.764;2024-03-25T07:00:02;6.90;84.80
26099;DHT22;13860;52.370;6.764;2024-03-25T07:03:09;7.00;84.60
26099;DHT22;13860;52.370;6.764;2024-03-25T07:06:11;7.10;84.70
26099;DHT22;13860;52.370;6.764;2024-03-25T07:09:14;7.20;85.00
26099;DHT22;13860;52.370;6.764;2024-03-25T07:12:16;7.30;84.90
26099;DHT22;13860;52.370;6.764;2024-03-25T07:15:20;7.40;84.90
26099;DHT22;13860;52.370;6.764;2024-03-25T07:18:24;7.60;84.50
26099;DHT22;13860;52.370;6.764;2024-03-25T07:21:28;7.60;84.60
26099;DHT22;13860;52.370;6.764;2024-03-25T07:24:30;7.70;84.50
26099;DHT22;13860;52.370;6.764;2024-03-25T07:27:33;7.90;84.60
26099;DHT22;13860;52.370;6.764;2024-03-25T07:30:35;8.00;84.50
26099;DHT22;13860;52.370;6.764;2024-03-25T07:33:41;8.20;84.60
26099;DHT22;13860;52.370;6.764;2024-03-25T07:36:43;8.40;84.80
26099;DHT22;13860;52.370;6.764;2024-03-25T07:39:47;8.50;84.80
26099;DHT22;13860;52.370;6.764;2024-03-25T07:42:49;8.70;84.70
26099;DHT22;13860;52.370;6.764;2024-03-25T07:45:52;8.90;85.40
26099;DHT22;13860;52.370;6.764;2024-03-25T07:48:57;9.10;84.70
26099;DHT22;13860;52.370;6.764;2024-03-25T07:52:02;9.30;84.80
26099;DHT22;13860;52.370;6.764;2024-03-25T07:55:04;9.50;84.80
26099;DHT22;13860;52.370;6.764;2024-03-25T07:58:08;9.80;84.80
26099;DHT22;13860;52.370;6.764;2024-03-25T08:01:10;10.00;84.70
26099;DHT22;13860;52.370;6.764;2024-03-25T08:04:16;10.20;84.60
26099;DHT22;13860;52.370;6.764;2024-03-25T08:07:18;10.40;84.40
26099;DHT22;13860;52.370;6.764;2024-03-25T08:10:21;10.60;84.30
26099;DHT22;13860;52.370;6.764;2024-03-25T08:13:23;10.80;84.30
26099;DHT22;13860;52.370;6.764;2024-03-25T08:16:28;10.70;83.90
26099;DHT22;13860;52.370;6.764;2024-03-25T08:19:33;11.10;83.80
26099;DHT22;13860;52.370;6.764;2024-03-25T08:22:37;11.30;83.90
26099;DHT22;13860;52.370;6.764;2024-03-25T08:25:38;11.50;83.80
26099;DHT22;13860;52.370;6.764;2024-03-25T08:28:42;11.70;83.60
26099;DHT22;13860;52.370;6.764;2024-03-25T08:31:44;11.90;83.50
26099;DHT22;13860;52.370;6.764;2024-03-25T08:34:50;12.10;83.30
26099;DHT22;13860;52.370;6.764;2024-03-25T08:37:52;12.20;83.00
26099;DHT22;13860;52.370;6.764;2024-03-25T08:40:55;12.40;82.80
26099;DHT22;13860;52.370;6.764;2024-03-25T08:43:58;12.50;82.70
26099;DHT22;13860;52.370;6.764;2024-03-25T08:47:02;12.70;82.50
26099;DHT22;13860;52.370;6.764;2024-03-25T08:50:07;12.80;82.30
26099;DHT22;13860;52.370;6.764;2024-03-25T08:53:11;12.90;82.10
26099;DHT22;13860;52.370;6.764;2024-03-25T08:56:12;13.10;82.00
26099;DHT22;13860;52.370;6.764;2024-03-25T08:59:16;13.20;81.90
26099;DHT22;13860;52.370;6.764;2024-03-25T09:02:18;13.30;81.80
26099;DHT22;13860;52.370;6.764;2024-03-25T09:05:24;13.60;81.70
26099;DHT22;13860;52.370;6.764;2024-03-25T09:08:26;13.70;81.30
26099;DHT22;13860;52.370;6.764;2024-03-25T09:11:30;13.80;81.10
26099;DHT22;13860;52.370;6.764;2024-03-25T09:14:31;13.90;80.90
26099;DHT22;13860;52.370;6.764;2024-03-25T09:17:37;14.10;80.40
26099;DHT22;13860;52.370;6.764;2024-03-25T09:20:41;14.10;80.00
26099;DHT22;13860;52.370;6.764;2024-03-25T09:23:45;14.10;79.50
26099;DHT22;13860;52.370;6.764;2024-03-25T09:26:49;14.20;79.20
26099;DHT22;13860;52.370;6.764;2024-03-25T09:29:53;14.20;78.80
26099;DHT22;13860;52.370;6.764;2024-03-25T09:32:55;14.20;78.70
26099;DHT22;13860;52.370;6.764;2024-03-25T09:36:01;14.20;78.50
26099;DHT22;13860;52.370;6.764;2024-03-25T09:39:03;14.20;78.20
26099;DHT22;13860;52.370;6.764;2024-03-25T09:42:08;14.20;78.10
26099;DHT22;13860;52.370;6.764;2024-03-25T09:45:12;14.20;78.00
26099;DHT22;13860;52.370;6.764;2024-03-25T09:48:16;14.10;77.80
26099;DHT22;13860;52.370;6.764;2024-03-25T09:51:22;14.10;77.70
26099;DHT22;13860;52.370;6.764;2024-03-25T09:54:26;14.00;77.50
26099;DHT22;13860;52.370;6.764;2024-03-25T09:57:28;13.90;77.30
26099;DHT22;13860;52.370;6.764;2024-03-25T10:00:32;13.90;77.10
26099;DHT22;13860;52.370;6.764;2024-03-25T10:03:35;13.90;77.10
26099;DHT22;13860;52.370;6.764;2024-03-25T10:06:42;13.90;77.70
26099;DHT22;13860;52.370;6.764;2024-03-25T10:09:43;13.80;77.20
26099;DHT22;13860;52.370;6.764;2024-03-25T10:12:47;13.70;77.60
26099;DHT22;13860;52.370;6.764;2024-03-25T10:15:49;13.70;77.40
26099;DHT22;13860;52.370;6.764;2024-03-25T10:18:53;13.70;77.00
26099;DHT22;13860;52.370;6.764;2024-03-25T10:22:04;13.60;76.80
26099;DHT22;13860;52.370;6.764;2024-03-25T10:25:20;13.60;76.30
26099;DHT22;13860;52.370;6.764;2024-03-25T10:28:30;13.60;76.20
26099;DHT22;13860;52.370;6.764;2024-03-25T10:31:35;13.50;76.20
26099;DHT22;13860;52.370;6.764;2024-03-25T10:34:41;13.40;76.00
26099;DHT22;13860;52.370;6.764;2024-03-25T10:37:51;13.40;76.20
26099;DHT22;13860;52.370;6.764;2024-03-25T10:40:57;13.40;76.10
26099;DHT22;13860;52.370;6.764;2024-03-25T10:44:06;13.40;75.90
26099;DHT22;13860;52.370;6.764;2024-03-25T10:47:11;13.40;75.80
26099;DHT22;13860;52.370;6.764;2024-03-25T10:50:23;13.40;75.80
26099;DHT22;13860;52.370;6.764;2024-03-25T10:53:29;13.40;75.90
26099;DHT22;13860;52.370;6.764;2024-03-25T10:56:33;13.50;75.90
26099;DHT22;13860;52.370;6.764;2024-03-25T10:59:36;13.50;75.80
26099;DHT22;13860;52.370;6.764;2024-03-25T11:02:41;13.50;75.60
26099;DHT22;13860;52.370;6.764;2024-03-25T11:05:44;13.60;75.60
26099;DHT22;13860;52.370;6.764;2024-03-25T11:08:59;13.60;75.50
26099;DHT22;13860;52.370;6.764;2024-03-25T11:12:12;13.70;75.10
26099;DHT22;13860;52.370;6.764;2024-03-25T11:15:18;13.60;74.90
26099;DHT22;13860;52.370;6.764;2024-03-25T11:18:23;13.60;74.80
26099;DHT22;13860;52.370;6.764;2024-03-25T11:21:30;13.60;74.70
26099;DHT22;13860;52.370;6.764;2024-03-25T11:24:35;13.70;74.70
26099;DHT22;13860;52.370;6.764;2024-03-25T11:27:39;13.70;74.60
26099;DHT22;13860;52.370;6.764;2024-03-25T11:30:44;13.70;74.70
26099;DHT22;13860;52.370;6.764;2024-03-25T11:33:49;13.80;74.70
26099;DHT22;13860;52.370;6.764;2024-03-25T11:36:51;13.90;74.60
26099;DHT22;13860;52.370;6.764;2024-03-25T11:40:04;13.90;74.40
26099;DHT22;13860;52.370;6.764;2024-03-25T11:43:06;14.00;74.10
26099;DHT22;13860;52.370;6.764;2024-03-25T11:46:11;14.00;74.30
26099;DHT22;13860;52.370;6.764;2024-03-25T11:49:16;14.10;74.50
26099;DHT22;13860;52.370;6.764;2024-03-25T11:52:29;14.20;74.30
26099;DHT22;13860;52.370;6.764;2024-03-25T11:55:35;14.20;74.00
26099;DHT22;13860;52.370;6.764;2024-03-25T11:58:46;14.30;73.80
26099;DHT22;13860;52.370;6.764;2024-03-25T12:01:48;14.40;73.60
26099;DHT22;13860;52.370;6.764;2024-03-25T12:04:53;14.40;73.50
26099;DHT22;13860;52.370;6.764;2024-03-25T12:07:57;14.40;73.30
26099;DHT22;13860;52.370;6.764;2024-03-25T12:11:03;14.40;73.20
26099;DHT22;13860;52.370;6.764;2024-03-25T12:14:20;14.40;72.80
26099;DHT22;13860;52.370;6.764;2024-03-25T12:17:24;14.50;72.90
26099;DHT22;13860;52.370;6.764;2024-03-25T12:20:26;14.50;72.90
26099;DHT22;13860;52.370;6.764;2024-03-25T12:23:30;14.50;72.60
26099;DHT22;13860;52.370;6.764;2024-03-25T12:26:34;14.60;72.30
26099;DHT22;13860;52.370;6.764;2024-03-25T12:29:38;14.60;72.00
26099;DHT22;13860;52.370;6.764;2024-03-25T12:32:41;14.60;72.10
26099;DHT22;13860;52.370;6.764;2024-03-25T12:35:45;14.70;72.10
26099;DHT22;13860;52.370;6.764;2024-03-25T12:38:54;14.60;71.80
26099;DHT22;13860;52.370;6.764;2024-03-25T12:42:04;14.70;71.40
26099;DHT22;13860;52.370;6.764;2024-03-25T12:45:06;14.70;71.40
26099;DHT22;13860;52.370;6.764;2024-03-25T12:48:10;14.70;71.50
26099;DHT22;13860;52.370;6.764;2024-03-25T12:51:14;14.80;71.40
26099;DHT22;13860;52.370;6.764;2024-03-25T12:54:18;14.80;71.20
26099;DHT22;13860;52.370;6.764;2024-03-25T12:57:22;14.80;71.10
26099;DHT22;13860;52.370;6.764;2024-03-25T13:00:26;14.80;71.30
26099;DHT22;13860;52.370;6.764;2024-03-25T13:03:27;14.90;70.80
26099;DHT22;13860;52.370;6.764;2024-03-25T13:06:31;14.90;70.70
26099;DHT22;13860;52.370;6.764;2024-03-25T13:09:33;14.90;70.60
26099;DHT22;13860;52.370;6.764;2024-03-25T13:12:39;14.90;70.40
26099;DHT22;13860;52.370;6.764;2024-03-25T13:15:41;14.80;70.20
26099;DHT22;13860;52.370;6.764;2024-03-25T13:18:45;14.90;70.20
26099;DHT22;13860;52.370;6.764;2024-03-25T13:21:46;14.90;70.00
26099;DHT22;13860;52.370;6.764;2024-03-25T13:24:50;14.90;69.90
26099;DHT22;13860;52.370;6.764;2024-03-25T13:27:54;14.90;70.30
26099;DHT22;13860;52.370;6.764;2024-03-25T13:30:58;14.80;70.00
26099;DHT22;13860;52.370;6.764;2024-03-25T13:34:00;14.80;70.00
26099;DHT22;13860;52.370;6.764;2024-03-25T13:37:04;14.80;69.90
26099;DHT22;13860;52.370;6.764;2024-03-25T13:40:07;14.90;70.50
26099;DHT22;13860;52.370;6.764;2024-03-25T13:43:14;14.80;69.60
26099;DHT22;13860;52.370;6.764;2024-03-25T13:46:16;14.90;69.40
26099;DHT22;13860;52.370;6.764;2024-03-25T13:49:19;14.90;69.40
26099;DHT22;13860;52.370;6.764;2024-03-25T13:52:21;14.90;69.30
26099;DHT22;13860;52.370;6.764;2024-03-25T13:55:25;15.00;69.10
26099;DHT22;13860;52.370;6.764;2024-03-25T13:58:29;15.00;68.90
26099;DHT22;13860;52.370;6.764;2024-03-25T14:01:33;15.00;68.60
26099;DHT22;13860;52.370;6.764;2024-03-25T14:04:35;15.00;68.70
26099;DHT22;13860;52.370;6.764;2024-03-25T14:07:38;15.00;68.50
26099;DHT22;13860;52.370;6.764;2024-03-25T14:10:42;14.90;68.40
26099;DHT22;13860;52.370;6.764;2024-03-25T14:13:49;14.90;68.30
26099;DHT22;13860;52.370;6.764;2024-03-25T14:16:50;14.90;68.10
26099;DHT22;13860;52.370;6.764;2024-03-25T14:19:56;14.90;68.10
26099;DHT22;13860;52.370;6.764;2024-03-25T14:22:58;14.90;68.00
26099;DHT22;13860;52.370;6.764;2024-03-25T14:26:01;14.90;68.00
26099;DHT22;13860;52.370;6.764;2024-03-25T14:29:06;14.90;67.90
26099;DHT22;13860;52.370;6.764;2024-03-25T14:32:09;14.90;68.30
26099;DHT22;13860;52.370;6.764;2024-03-25T14:35:11;14.80;67.70
26099;DHT22;13860;52.370;6.764;2024-03-25T14:38:15;14.80;67.60
26099;DHT22;13860;52.370;6.764;2024-03-25T14:41:19;14.70;68.20
26099;DHT22;13860;52.370;6.764;2024-03-25T14:44:25;14.70;67.40
26099;DHT22;13860;52.370;6.764;2024-03-25T14:47:27;14.60;67.30
26099;DHT22;13860;52.370;6.764;2024-03-25T14:50:31;14.60;67.40
26099;DHT22;13860;52.370;6.764;2024-03-25T14:53:32;14.60;67.30
26099;DHT22;13860;52.370;6.764;2024-03-25T14:56:36;14.50;67.20
26099;DHT22;13860;52.370;6.764;2024-03-25T14:59:40;14.50;67.60
26099;DHT22;13860;52.370;6.764;2024-03-25T15:02:44;14.40;67.30
26099;DHT22;13860;52.370;6.764;2024-03-25T15:05:46;14.40;67.30
26099;DHT22;13860;52.370;6.764;2024-03-25T15:08:50;14.30;67.10
26099;DHT22;13860;52.370;6.764;2024-03-25T15:11:51;14.30;67.00
26099;DHT22;13860;52.370;6.764;2024-03-25T15:14:58;14.20;66.90
26099;DHT22;13860;52.370;6.764;2024-03-25T15:17:59;14.10;66.70
26099;DHT22;13860;52.370;6.764;2024-03-25T15:21:04;14.10;66.60
26099;DHT22;13860;52.370;6.764;2024-03-25T15:24:06;14.00;67.30
26099;DHT22;13860;52.370;6.764;2024-03-25T15:27:10;13.90;66.60
26099;DHT22;13860;52.370;6.764;2024-03-25T15:30:14;13.80;66.50
26099;DHT22;13860;52.370;6.764;2024-03-25T15:33:18;13.80;66.30
26099;DHT22;13860;52.370;6.764;2024-03-25T15:36:20;13.70;67.10
26099;DHT22;13860;52.370;6.764;2024-03-25T15:39:24;13.60;66.30
26099;DHT22;13860;52.370;6.764;2024-03-25T15:42:25;13.60;66.30
26099;DHT22;13860;52.370;6.764;2024-03-25T15:45:32;13.50;66.30
26099;DHT22;13860;52.370;6.764;2024-03-25T15:48:33;13.50;66.20
26099;DHT22;13860;52.370;6.764;2024-03-25T15:51:37;13.50;66.30
26099;DHT22;13860;52.370;6.764;2024-03-25T15:54:39;13.40;66.20
26099;DHT22;13860;52.370;6.764;2024-03-25T15:57:43;13.40;66.20
26099;DHT22;13860;52.370;6.764;2024-03-25T16:00:47;13.30;66.10
26099;DHT22;13860;52.370;6.764;2024-03-25T16:03:51;13.30;65.90
26099;DHT22;13860;52.370;6.764;2024-03-25T16:06:53;13.30;66.70
26099;DHT22;13860;52.370;6.764;2024-03-25T16:09:57;13.30;65.90
26099;DHT22;13860;52.370;6.764;2024-03-25T16:12:59;13.20;65.90
26099;DHT22;13860;52.370;6.764;2024-03-25T16:16:06;13.20;65.80
26099;DHT22;13860;52.370;6.764;2024-03-25T16:19:08;13.20;65.70
26099;DHT22;13860;52.370;6.764;2024-03-25T16:22:12;13.10;65.80
26099;DHT22;13860;52.370;6.764;2024-03-25T16:25:13;13.20;65.90
26099;DHT22;13860;52.370;6.764;2024-03-25T16:28:17;13.10;65.70
26099;DHT22;13860;52.370;6.764;2024-03-25T16:31:22;13.10;66.00
26099;DHT22;13860;52.370;6.764;2024-03-25T16:34:25;13.00;65.90
26099;DHT22;13860;52.370;6.764;2024-03-25T16:37:27;13.00;65.80
26099;DHT22;13860;52.370;6.764;2024-03-25T16:40:31;13.00;65.70
26099;DHT22;13860;52.370;6.764;2024-03-25T16:43:32;12.90;65.60
26099;DHT22;13860;52.370;6.764;2024-03-25T16:46:39;12.90;65.50
26099;DHT22;13860;52.370;6.764;2024-03-25T16:49:41;12.90;65.40
26099;DHT22;13860;52.370;6.764;2024-03-25T16:52:44;12.90;65.50
26099;DHT22;13860;52.370;6.764;2024-03-25T16:55:49;12.80;65.40
26099;DHT22;13860;52.370;6.764;2024-03-25T16:58:52;12.90;65.40
26099;DHT22;13860;52.370;6.764;2024-03-25T17:01:59;12.80;65.40
26099;DHT22;13860;52.370;6.764;2024-03-25T17:05:04;12.80;65.40
26099;DHT22;13860;52.370;6.764;2024-03-25T17:08:06;12.70;65.40
26099;DHT22;13860;52.370;6.764;2024-03-25T17:11:10;12.70;65.40
26099;DHT22;13860;52.370;6.764;2024-03-25T17:14:12;12.70;65.40
26099;DHT22;13860;52.370;6.764;2024-03-25T17:17:18;12.70;65.30
26099;DHT22;13860;52.370;6.764;2024-03-25T17:20:20;12.60;65.20
26099;DHT22;13860;52.370;6.764;2024-03-25T17:23:23;12.60;65.90
26099;DHT22;13860;52.370;6.764;2024-03-25T17:26:25;12.50;65.20
26099;DHT22;13860;52.370;6.764;2024-03-25T17:29:29;12.50;65.20
26099;DHT22;13860;52.370;6.764;2024-03-25T17:32:33;12.40;65.20
26099;DHT22;13860;52.370;6.764;2024-03-25T17:35:37;12.30;65.10
26099;DHT22;13860;52.370;6.764;2024-03-25T17:38:39;12.30;65.80
26099;DHT22;13860;52.370;6.764;2024-03-25T17:41:43;12.30;65.30
26099;DHT22;13860;52.370;6.764;2024-03-25T17:44:48;12.30;65.40
26099;DHT22;13860;52.370;6.764;2024-03-25T17:47:55;12.20;65.30
26099;DHT22;13860;52.370;6.764;2024-03-25T17:50:58;12.00;65.20
26099;DHT22;13860;52.370;6.764;2024-03-25T17:54:02;12.00;65.20
26099;DHT22;13860;52.370;6.764;2024-03-25T17:57:04;12.00;65.30
26099;DHT22;13860;52.370;6.764;2024-03-25T18:00:09;11.90;65.30
26099;DHT22;13860;52.370;6.764;2024-03-25T18:03:13;11.80;65.30
26099;DHT22;13860;52.370;6.764;2024-03-25T18:06:18;11.80;65.40
26099;DHT22;13860;52.370;6.764;2024-03-25T18:09:19;11.70;65.50
26099;DHT22;13860;52.370;6.764;2024-03-25T18:12:23;11.60;65.50
26099;DHT22;13860;52.370;6.764;2024-03-25T18:15:25;11.50;65.60
26099;DHT22;13860;52.370;6.764;2024-03-25T18:18:31;11.50;65.70
26099;DHT22;13860;52.370;6.764;2024-03-25T18:21:33;11.50;65.80
26099;DHT22;13860;52.370;6.764;2024-03-25T18:24:37;11.30;65.80
26099;DHT22;13860;52.370;6.764;2024-03-25T18:27:38;11.30;66.50
26099;DHT22;13860;52.370;6.764;2024-03-25T18:30:43;11.20;65.90
26099;DHT22;13860;52.370;6.764;2024-03-25T18:33:47;11.20;66.10
26099;DHT22;13860;52.370;6.764;2024-03-25T18:36:51;11.10;66.10
26099;DHT22;13860;52.370;6.764;2024-03-25T18:39:53;11.00;66.10
26099;DHT22;13860;52.370;6.764;2024-03-25T18:42:57;10.90;66.10
26099;DHT22;13860;52.370;6.764;2024-03-25T18:45:58;10.90;66.20
26099;DHT22;13860;52.370;6.764;2024-03-25T18:49:05;10.80;66.20
26099;DHT22;13860;52.370;6.764;2024-03-25T18:52:06;10.70;66.20
26099;DHT22;13860;52.370;6.764;2024-03-25T18:55:10;10.70;66.30
26099;DHT22;13860;52.370;6.764;2024-03-25T18:58:12;10.60;66.30
26099;DHT22;13860;52.370;6.764;2024-03-25T19:01:16;10.60;66.40
26099;DHT22;13860;52.370;6.764;2024-03-25T19:04:20;10.50;66.40
26099;DHT22;13860;52.370;6.764;2024-03-25T19:07:24;10.40;66.40
26099;DHT22;13860;52.370;6.764;2024-03-25T19:10:25;10.40;66.50
26099;DHT22;13860;52.370;6.764;2024-03-25T19:13:29;10.30;66.50
26099;DHT22;13860;52.370;6.764;2024-03-25T19:16:31;10.20;67.10
26099;DHT22;13860;52.370;6.764;2024-03-25T19:19:37;10.10;66.50
26099;DHT22;13860;52.370;6.764;2024-03-25T19:22:39;10.10;66.50
26099;DHT22;13860;52.370;6.764;2024-03-25T19:25:43;10.10;66.60
26099;DHT22;13860;52.370;6.764;2024-03-25T19:28:45;10.00;66.50